createdAt,value
2022-08-10T00:00:22.177Z,100.00
2022-08-10T00:02:57.683Z,100.00
2022-08-10T00:05:43.701Z,100.00
2022-08-10T00:08:02.139Z,100.00
2022-08-10T00:10:32.991Z,100.00
2022-08-10T00:13:04.156Z,100.00
2022-08-10T00:15:52.266Z,100.00
2022-08-10T00:18:07.982Z,100.00
2022-08-10T00:20:38.854Z,100.00
2022-08-10T00:23:09.717Z,100.00
2022-08-10T00:25:42.506Z,100.00
2022-08-10T00:28:13.677Z,100.00
2022-08-10T00:30:44.738Z,100.00
2022-08-10T00:33:15.713Z,100.00
2022-08-10T00:35:46.778Z,100.00
2022-08-10T00:38:17.801Z,100.00
2022-08-10T00:40:48.788Z,100.00
2022-08-10T00:43:23.855Z,100.00
2022-08-10T00:45:59.041Z,100.00
2022-08-10T00:48:25.619Z,100.00
2022-08-10T00:51:00.395Z,100.00
2022-08-10T00:53:31.421Z,100.00
2022-08-10T00:57:14.169Z,100.00
2022-08-10T00:58:36.541Z,100.00
2022-08-10T01:01:11.670Z,100.00
2022-08-10T01:04:57.972Z,100.00
2022-08-10T01:06:35.459Z,100.00
2022-08-10T01:09:14.997Z,100.00
2022-08-10T01:12:39.855Z,100.00
2022-08-10T01:14:45.946Z,100.00
2022-08-10T01:17:50.581Z,100.00
2022-08-10T01:20:30.197Z,100.00
2022-08-10T01:23:20.187Z,100.00
2022-08-10T01:26:30.491Z,100.00
2022-08-10T01:29:06.085Z,100.00
2022-08-10T01:31:45.938Z,100.00
2022-08-10T01:34:22.417Z,100.00
2022-08-10T01:36:57.795Z,100.00
2022-08-10T01:39:32.099Z,100.00
2022-08-10T01:42:04.697Z,100.00
2022-08-10T01:44:58.561Z,100.00
2022-08-10T01:47:53.247Z,100.00
2022-08-10T01:50:29.711Z,100.00
2022-08-10T01:53:06.608Z,100.00
2022-08-10T01:55:40.333Z,100.00
2022-08-10T01:58:13.678Z,100.00
2022-08-10T02:00:47.070Z,100.00
2022-08-10T02:03:20.508Z,100.00
2022-08-10T02:05:55.918Z,100.00
2022-08-10T02:08:27.520Z,100.00
2022-08-10T02:11:01.093Z,100.00
2022-08-10T02:13:33.083Z,100.00
2022-08-10T02:16:06.637Z,100.00
2022-08-10T02:18:39.690Z,100.00
2022-08-10T02:21:11.885Z,100.00
2022-08-10T02:23:44.670Z,100.00
2022-08-10T02:26:18.089Z,100.00
2022-08-10T02:28:50.062Z,100.00
2022-08-10T02:31:23.885Z,100.00
2022-08-10T02:33:59.479Z,100.00
2022-08-10T02:36:34.241Z,100.00
2022-08-10T02:39:08.185Z,100.00
2022-08-10T02:45:18.298Z,100.00
2022-08-10T02:45:23.851Z,100.00
2022-08-10T02:47:24.235Z,100.00
2022-08-10T02:50:10.417Z,100.00
2022-08-10T02:52:49.568Z,100.00
2022-08-10T02:55:45.993Z,100.00
2022-08-10T02:58:19.910Z,100.00
2022-08-10T03:00:53.913Z,100.00
2022-08-10T03:03:30.729Z,100.00
2022-08-10T03:06:04.660Z,100.00
2022-08-10T03:08:38.429Z,100.00
2022-08-10T03:11:11.421Z,100.00
2022-08-10T03:13:43.139Z,100.00
2022-08-10T03:16:15.903Z,100.00
2022-08-10T03:18:49.084Z,100.00
2022-08-10T03:21:22.865Z,100.00
2022-08-10T03:23:57.183Z,100.00
2022-08-10T03:26:31.230Z,100.00
2022-08-10T03:29:07.199Z,100.00
2022-08-10T03:31:40.090Z,100.00
2022-08-10T03:34:22.158Z,100.00
2022-08-10T03:36:45.323Z,100.00
2022-08-10T03:39:18.693Z,100.00
2022-08-10T03:41:55.873Z,100.00
2022-08-10T03:44:31.364Z,100.00
2022-08-10T03:47:03.960Z,100.00
2022-08-10T03:49:41.746Z,100.00
2022-08-10T03:52:13.617Z,100.00
2022-08-10T03:54:45.687Z,100.00
2022-08-10T03:57:16.855Z,100.00
2022-08-10T03:59:50.172Z,100.00
2022-08-10T04:02:46.987Z,100.00
2022-08-10T04:04:55.486Z,100.00
2022-08-10T04:07:27.042Z,100.00
2022-08-10T04:09:58.766Z,100.00
2022-08-10T04:12:29.856Z,100.00
2022-08-10T04:15:00.915Z,100.00
2022-08-10T04:18:01.281Z,100.00
2022-08-10T04:20:06.435Z,100.00
2022-08-10T04:22:39.265Z,100.00
2022-08-10T04:25:11.911Z,100.00
2022-08-10T04:27:43.412Z,100.00
2022-08-10T04:30:14.526Z,100.00
2022-08-10T04:32:47.535Z,100.00
2022-08-10T04:35:20.832Z,100.00
2022-08-10T04:37:52.796Z,100.00
2022-08-10T04:40:25.339Z,100.00
2022-08-10T04:43:01.342Z,100.00
2022-08-10T04:45:48.647Z,100.00
2022-08-10T04:48:03.277Z,100.00
2022-08-10T04:50:34.547Z,100.00
2022-08-10T04:53:06.958Z,100.00
2022-08-10T04:55:38.870Z,100.00
2022-08-10T04:58:10.075Z,100.00
2022-08-10T05:00:43.778Z,100.00
2022-08-10T05:03:14.751Z,100.00
2022-08-10T05:05:45.609Z,100.00
2022-08-10T05:08:18.197Z,100.00
2022-08-10T05:10:50.498Z,100.00
2022-08-10T05:13:21.572Z,100.00
2022-08-10T05:15:54.131Z,100.00
2022-08-10T05:18:25.234Z,100.00
2022-08-10T05:20:56.178Z,100.00
2022-08-10T05:23:27.008Z,100.00
2022-08-10T05:25:57.963Z,100.00
2022-08-10T05:28:34.037Z,100.00
2022-08-10T05:31:03.082Z,100.00
2022-08-10T05:33:34.506Z,100.00
2022-08-10T05:36:06.398Z,100.00
2022-08-10T05:38:38.333Z,100.00
2022-08-10T05:41:09.450Z,100.00
2022-08-10T05:43:41.048Z,100.00
2022-08-10T05:46:18.349Z,100.00
2022-08-10T05:48:57.048Z,100.00
2022-08-10T05:51:21.358Z,100.00
2022-08-10T05:54:03.208Z,100.00
2022-08-10T05:56:24.898Z,100.00
2022-08-10T05:58:56.575Z,100.00
2022-08-10T06:01:29.597Z,100.00
2022-08-10T06:04:02.463Z,100.00
2022-08-10T06:06:35.587Z,100.00
2022-08-10T06:09:10.414Z,100.00
2022-08-10T06:12:27.165Z,100.00
2022-08-10T06:14:34.806Z,100.00
2022-08-10T06:17:08.273Z,100.00
2022-08-10T06:19:39.797Z,100.00
2022-08-10T06:22:11.825Z,100.00
2022-08-10T06:25:21.506Z,100.00
2022-08-10T06:27:19.964Z,100.00
2022-08-10T06:29:54.158Z,100.00
2022-08-10T06:32:29.005Z,100.00
2022-08-10T06:35:02.321Z,100.00
2022-08-10T06:37:34.337Z,100.00
2022-08-10T06:40:06.060Z,100.00
2022-08-10T06:42:40.229Z,100.00
2022-08-10T06:45:14.673Z,100.00
2022-08-10T06:48:00.754Z,100.00
2022-08-10T06:50:58.080Z,100.00
2022-08-10T06:53:22.361Z,100.00
2022-08-10T06:55:59.008Z,100.00
2022-08-10T06:58:32.879Z,100.00
2022-08-10T07:01:06.851Z,100.00
2022-08-10T07:03:40.595Z,100.00
2022-08-10T07:06:14.363Z,100.00
2022-08-10T07:08:46.666Z,100.00
2022-08-10T07:11:19.610Z,100.00
2022-08-10T07:14:14.058Z,100.00
2022-08-10T07:16:28.637Z,100.00
2022-08-10T07:19:02.382Z,100.00
2022-08-10T07:21:34.838Z,100.00
2022-08-10T07:24:09.773Z,100.00
2022-08-10T07:26:43.663Z,100.00
2022-08-10T07:29:26.560Z,100.00
2022-08-10T07:31:57.337Z,100.00
2022-08-10T07:34:29.389Z,100.00
2022-08-10T07:37:01.176Z,100.00
2022-08-10T07:40:02.350Z,100.00
2022-08-10T07:42:09.518Z,100.00
2022-08-10T07:44:43.376Z,100.00
2022-08-10T07:47:17.454Z,100.00
2022-08-10T07:49:52.174Z,100.00
2022-08-10T07:52:24.858Z,100.00
2022-08-10T07:54:57.412Z,100.00
2022-08-10T07:57:34.780Z,100.00
2022-08-10T08:00:07.262Z,100.00
2022-08-10T08:02:43.665Z,100.00
2022-08-10T08:05:38.601Z,100.00
2022-08-10T08:07:51.218Z,100.00
2022-08-10T08:10:25.001Z,100.00
2022-08-10T08:13:01.889Z,100.00
2022-08-10T08:16:17.499Z,100.00
2022-08-10T08:18:08.757Z,100.00
2022-08-10T08:20:41.237Z,100.00
2022-08-10T08:24:10.167Z,100.00
2022-08-10T08:25:49.185Z,100.00
2022-08-10T08:28:23.009Z,100.00
2022-08-10T08:30:55.104Z,100.00
2022-08-10T08:33:41.337Z,100.00
2022-08-10T08:36:02.350Z,100.00
2022-08-10T08:38:37.630Z,100.00
2022-08-10T08:41:31.304Z,100.00
2022-08-10T08:44:38.649Z,100.00
2022-08-10T08:48:02.109Z,100.00
2022-08-10T08:50:08.262Z,100.00
2022-08-10T08:53:21.216Z,100.00
2022-08-10T08:56:11.549Z,100.00
2022-08-10T08:59:05.415Z,100.00
2022-08-10T09:01:56.613Z,100.00
2022-08-10T09:04:50.786Z,100.00
2022-08-10T09:08:01.817Z,100.00
2022-08-10T09:10:38.640Z,100.00
2022-08-10T09:13:24.520Z,100.00
2022-08-10T09:16:04.672Z,100.00
2022-08-10T09:18:55.150Z,100.00
2022-08-10T09:21:31.614Z,100.00
2022-08-10T09:24:19.861Z,100.00
2022-08-10T09:26:53.776Z,100.00
2022-08-10T09:29:30.997Z,100.00
2022-08-10T09:36:16.158Z,100.00
2022-08-10T09:36:29.675Z,100.00
2022-08-10T09:38:01.332Z,100.00
2022-08-10T09:41:00.722Z,100.00
2022-08-10T09:43:26.857Z,100.00
2022-08-10T09:46:14.495Z,100.00
2022-08-10T09:49:08.651Z,100.00
2022-08-10T09:51:56.189Z,100.00
2022-08-10T09:54:51.618Z,100.00
2022-08-10T09:57:43.965Z,100.00
2022-08-10T10:00:15.999Z,100.00
2022-08-10T10:02:56.246Z,100.00
2022-08-10T10:05:51.038Z,100.00
2022-08-10T10:08:45.853Z,100.00
2022-08-10T10:11:36.776Z,100.00
2022-08-10T10:14:27.281Z,100.00
2022-08-10T10:17:16.380Z,100.00
2022-08-10T10:20:07.215Z,100.00
2022-08-10T10:22:59.419Z,100.00
2022-08-10T10:25:52.578Z,100.00
2022-08-10T10:31:33.740Z,86.06
2022-08-10T10:34:24.787Z,95.13
2022-08-10T10:36:58.062Z,98.66
2022-08-10T10:39:35.239Z,100.00
2022-08-10T10:42:41.871Z,100.00
2022-08-10T10:45:24.746Z,100.00
2022-08-10T10:48:08.264Z,100.00
2022-08-10T10:51:16.276Z,100.00
2022-08-10T10:53:53.241Z,100.00
2022-08-10T10:56:48.422Z,100.00
2022-08-10T10:59:54.895Z,100.00
2022-08-10T11:02:20.702Z,100.00
2022-08-10T11:05:28.418Z,88.51
2022-08-10T11:08:02.437Z,91.93
2022-08-10T11:10:46.507Z,96.53
2022-08-10T11:14:25.003Z,100.00
2022-08-10T11:16:23.721Z,90.58
2022-08-10T11:20:00.322Z,100.00
2022-08-10T11:22:11.383Z,100.00
2022-08-10T11:24:50.312Z,100.00
2022-08-10T11:27:29.337Z,100.00
2022-08-10T11:30:06.775Z,99.28
2022-08-10T11:32:57.466Z,87.31
2022-08-10T11:35:37.424Z,80.77
2022-08-10T11:38:30.048Z,88.96
2022-08-10T11:40:59.091Z,90.52
2022-08-10T11:43:33.963Z,72.44
2022-08-10T11:46:19.432Z,78.03
2022-08-10T11:48:53.953Z,70.56
2022-08-10T11:51:26.247Z,91.23
2022-08-10T11:54:12.401Z,78.22
2022-08-10T11:56:52.168Z,73.85
2022-08-10T11:59:43.990Z,76.00
2022-08-10T12:02:20.682Z,82.12
2022-08-10T12:05:08.407Z,87.62
2022-08-10T12:10:03.617Z,76.93
2022-08-10T12:10:18.640Z,89.63
2022-08-10T12:13:25.843Z,88.64
2022-08-10T12:16:05.921Z,88.69
2022-08-10T12:18:52.235Z,100.00
2022-08-10T12:21:35.151Z,84.10
2022-08-10T12:24:25.318Z,77.61
2022-08-10T12:27:15.630Z,66.27
2022-08-10T12:30:03.630Z,68.90
2022-08-10T12:32:52.459Z,73.51
2022-08-10T12:35:29.062Z,63.28
2022-08-10T12:38:06.570Z,62.09
2022-08-10T12:40:59.033Z,63.05
2022-08-10T12:44:05.644Z,72.90
2022-08-10T12:46:43.350Z,63.13
2022-08-10T12:49:33.844Z,62.29
2022-08-10T12:52:27.901Z,59.60
2022-08-10T12:55:03.950Z,55.43
2022-08-10T12:57:38.639Z,53.95
2022-08-10T13:00:17.604Z,53.50
2022-08-10T13:02:48.781Z,55.47
2022-08-10T13:05:19.012Z,56.00
2022-08-10T13:08:04.000Z,59.97
2022-08-10T13:10:25.819Z,54.74
2022-08-10T13:12:59.364Z,55.15
2022-08-10T13:15:49.423Z,55.83
2022-08-10T13:18:17.722Z,52.88
2022-08-10T13:20:46.423Z,51.65
2022-08-10T13:23:20.543Z,49.46
2022-08-10T13:25:53.765Z,51.20
2022-08-10T13:28:36.365Z,50.48
2022-08-10T13:31:05.892Z,46.32
2022-08-10T13:34:41.188Z,47.38
2022-08-10T13:36:12.849Z,47.57
2022-08-10T13:38:47.628Z,47.19
2022-08-10T13:41:20.025Z,47.92
2022-08-10T13:43:56.559Z,50.08
2022-08-10T13:46:28.483Z,47.86
2022-08-10T13:49:02.118Z,47.63
2022-08-10T13:51:53.746Z,49.63
2022-08-10T13:54:11.603Z,44.82
2022-08-10T13:56:45.640Z,48.20
2022-08-10T13:59:17.942Z,46.11
2022-08-10T14:01:51.716Z,44.19
2022-08-10T14:04:23.107Z,44.66
2022-08-10T14:06:58.421Z,46.04
2022-08-10T14:09:34.328Z,45.88
2022-08-10T14:12:08.455Z,43.78
2022-08-10T14:14:40.360Z,43.20
2022-08-10T14:17:13.900Z,43.42
2022-08-10T14:19:58.475Z,45.11
2022-08-10T14:22:34.147Z,44.69
2022-08-10T14:25:07.660Z,45.62
2022-08-10T14:28:02.476Z,44.79
2022-08-10T14:30:16.143Z,45.12
2022-08-10T14:32:49.956Z,44.45
2022-08-10T14:36:18.725Z,46.40
2022-08-10T14:38:04.612Z,44.33
2022-08-10T14:40:38.437Z,43.28
2022-08-10T14:43:12.482Z,42.89
2022-08-10T14:45:47.906Z,41.94
2022-08-10T14:48:32.098Z,42.48
2022-08-10T14:51:02.438Z,41.39
2022-08-10T14:53:38.084Z,43.21
2022-08-10T14:56:13.486Z,42.83
2022-08-10T14:59:05.445Z,44.28
2022-08-10T15:02:01.035Z,43.31
2022-08-10T15:04:15.432Z,41.44
2022-08-10T15:07:16.161Z,42.15
2022-08-10T15:10:01.182Z,42.40
2022-08-10T15:12:29.219Z,41.52
2022-08-10T15:15:04.797Z,42.17
2022-08-10T15:17:41.095Z,42.79
2022-08-10T15:20:20.656Z,45.56
2022-08-10T15:22:58.069Z,44.00
2022-08-10T15:25:36.363Z,44.01
2022-08-10T15:28:08.512Z,42.73
2022-08-10T15:31:00.582Z,45.69
2022-08-10T15:34:08.924Z,42.91
2022-08-10T15:37:40.646Z,42.79
2022-08-10T15:40:21.007Z,43.99
2022-08-10T15:42:26.158Z,43.27
2022-08-10T15:44:59.083Z,42.41
2022-08-10T15:47:45.694Z,43.42
2022-08-10T15:50:17.294Z,44.13
2022-08-10T15:53:01.587Z,45.29
2022-08-10T15:55:43.288Z,44.46
2022-08-10T15:58:10.925Z,44.01
2022-08-10T16:01:01.763Z,42.42
2022-08-10T16:03:54.585Z,43.09
2022-08-10T16:06:56.984Z,44.67
2022-08-10T16:10:24.577Z,44.81
2022-08-10T16:12:18.337Z,44.26
2022-08-10T16:14:52.326Z,44.56
2022-08-10T16:17:25.392Z,43.45
2022-08-10T16:20:00.501Z,45.09
2022-08-10T16:22:37.008Z,47.09
2022-08-10T16:25:13.090Z,46.36
2022-08-10T16:27:46.307Z,46.51
2022-08-10T16:30:17.847Z,46.19
2022-08-10T16:32:51.347Z,46.98
2022-08-10T16:35:24.142Z,54.33
2022-08-10T16:38:12.206Z,52.16
2022-08-10T16:40:51.630Z,64.78
2022-08-10T16:43:24.629Z,47.78
2022-08-10T16:45:58.043Z,48.47
2022-08-10T16:48:48.896Z,49.69
2022-08-10T16:51:06.241Z,45.21
2022-08-10T16:53:44.297Z,46.22
2022-08-10T16:56:17.815Z,45.75
2022-08-10T16:58:52.621Z,49.68
2022-08-10T17:01:26.566Z,45.10
2022-08-10T17:04:06.734Z,45.82
2022-08-10T17:06:39.049Z,47.24
2022-08-10T17:09:12.753Z,46.48
2022-08-10T17:11:47.980Z,46.77
2022-08-10T17:14:20.392Z,47.60
2022-08-10T17:16:55.234Z,48.71
2022-08-10T17:19:28.661Z,51.57
2022-08-10T17:22:04.124Z,50.58
2022-08-10T17:24:39.961Z,53.93
2022-08-10T17:28:05.114Z,49.09
2022-08-10T17:29:58.484Z,47.47
2022-08-10T17:32:43.952Z,51.26
2022-08-10T17:35:12.736Z,51.79
2022-08-10T17:37:49.720Z,53.94
2022-08-10T17:40:23.550Z,52.23
2022-08-10T17:42:56.224Z,53.11
2022-08-10T17:45:53.380Z,54.99
2022-08-10T17:48:38.251Z,56.49
2022-08-10T17:51:15.597Z,56.65
2022-08-10T17:53:54.076Z,65.83
2022-08-10T17:56:27.207Z,74.09
2022-08-10T17:59:03.045Z,79.89
2022-08-10T18:01:40.478Z,80.36
2022-08-10T18:04:15.307Z,81.07
2022-08-10T18:06:47.054Z,86.29
2022-08-10T18:09:41.283Z,92.59
2022-08-10T18:12:18.873Z,100.00
2022-08-10T18:14:52.695Z,100.00
2022-08-10T18:17:29.109Z,100.00
2022-08-10T18:20:03.001Z,100.00
2022-08-10T18:22:35.155Z,100.00
2022-08-10T18:25:06.961Z,100.00
2022-08-10T18:28:01.690Z,100.00
2022-08-10T18:30:17.200Z,100.00
2022-08-10T18:32:51.206Z,100.00
2022-08-10T18:35:24.248Z,100.00
2022-08-10T18:37:59.409Z,100.00
2022-08-10T18:40:35.454Z,100.00
2022-08-10T18:44:07.216Z,100.00
2022-08-10T18:45:43.590Z,100.00
2022-08-10T18:48:23.270Z,100.00
2022-08-10T18:50:58.210Z,100.00
2022-08-10T18:53:49.214Z,100.00
2022-08-10T18:56:26.315Z,100.00
2022-08-10T18:59:22.842Z,100.00
2022-08-10T19:02:30.312Z,100.00
2022-08-10T19:05:31.061Z,100.00
2022-08-10T19:08:30.567Z,100.00
2022-08-10T19:11:10.740Z,100.00
2022-08-10T19:14:18.179Z,100.00
2022-08-10T19:17:09.811Z,100.00
2022-08-10T19:20:17.248Z,100.00
2022-08-10T19:22:57.110Z,100.00
2022-08-10T19:26:39.360Z,100.00
2022-08-10T19:28:14.496Z,100.00
2022-08-10T19:30:51.241Z,100.00
2022-08-10T19:33:31.290Z,100.00
2022-08-10T19:36:05.704Z,100.00
2022-08-10T19:38:49.363Z,100.00
2022-08-10T19:41:32.512Z,100.00
2022-08-10T19:44:28.718Z,100.00
2022-08-10T19:47:09.625Z,100.00
2022-08-10T19:50:03.652Z,100.00
2022-08-10T19:52:37.885Z,100.00
2022-08-10T19:55:47.116Z,100.00
2022-08-10T19:58:33.995Z,100.00
2022-08-10T20:01:09.383Z,100.00
2022-08-10T20:03:49.866Z,100.00
2022-08-10T20:06:40.430Z,100.00
2022-08-10T20:09:14.470Z,100.00
2022-08-10T20:12:08.348Z,100.00
2022-08-10T20:14:48.875Z,100.00
2022-08-10T20:17:26.103Z,100.00
2022-08-10T20:20:16.978Z,100.00
2022-08-10T20:22:53.890Z,100.00
2022-08-10T20:25:32.765Z,100.00
2022-08-10T20:28:23.453Z,100.00
2022-08-10T20:30:56.680Z,100.00
2022-08-10T20:33:33.071Z,100.00
2022-08-10T20:36:13.047Z,100.00
2022-08-10T20:38:56.348Z,100.00
2022-08-10T20:42:03.622Z,100.00
2022-08-10T20:44:37.496Z,100.00
2022-08-10T20:47:11.390Z,100.00
2022-08-10T20:50:03.936Z,100.00
2022-08-10T20:52:37.264Z,100.00
2022-08-10T20:55:11.135Z,100.00
2022-08-10T20:57:54.646Z,100.00
2022-08-10T21:00:23.561Z,100.00
2022-08-10T21:03:00.259Z,100.00
2022-08-10T21:05:52.783Z,100.00
2022-08-10T21:08:34.521Z,100.00
2022-08-10T21:11:11.366Z,100.00
2022-08-10T21:14:08.540Z,100.00
2022-08-10T21:16:48.373Z,100.00
2022-08-10T21:19:37.888Z,100.00
2022-08-10T21:22:29.797Z,100.00
2022-08-10T21:25:09.760Z,100.00
2022-08-10T21:28:04.003Z,100.00
2022-08-10T21:30:46.005Z,100.00
2022-08-10T21:33:37.092Z,100.00
2022-08-10T21:36:25.424Z,100.00
2022-08-10T21:39:03.673Z,100.00
2022-08-10T21:41:57.529Z,100.00
2022-08-10T21:45:08.178Z,100.00
2022-08-10T21:48:16.459Z,100.00
2022-08-10T21:51:06.065Z,100.00
2022-08-10T21:53:59.936Z,100.00
2022-08-10T21:56:51.508Z,100.00
2022-08-10T21:59:48.793Z,100.00
2022-08-10T22:02:50.325Z,100.00
2022-08-10T22:05:38.755Z,100.00
2022-08-10T22:08:25.841Z,100.00
2022-08-10T22:11:17.346Z,100.00
2022-08-10T22:14:09.823Z,100.00
2022-08-10T22:17:07.530Z,100.00
2022-08-10T22:20:00.799Z,100.00
2022-08-10T22:23:01.186Z,100.00
2022-08-10T22:26:11.121Z,100.00
2022-08-10T22:29:06.613Z,100.00
2022-08-10T22:32:21.154Z,100.00
2022-08-10T22:35:18.496Z,100.00
2022-08-10T22:38:19.013Z,100.00
2022-08-10T22:41:08.485Z,100.00
2022-08-10T22:44:00.189Z,100.00
2022-08-10T22:46:52.539Z,100.00
2022-08-10T22:49:24.083Z,100.00
2022-08-10T22:52:03.531Z,100.00
2022-08-10T22:55:00.880Z,100.00
2022-08-10T22:57:49.733Z,100.00
2022-08-10T23:00:30.930Z,100.00
2022-08-10T23:02:59.899Z,100.00
2022-08-10T23:05:36.719Z,100.00
2022-08-10T23:08:30.040Z,100.00
2022-08-10T23:10:47.631Z,100.00
2022-08-10T23:13:36.448Z,100.00
2022-08-10T23:16:29.127Z,100.00
2022-08-10T23:19:14.097Z,100.00
2022-08-10T23:22:07.902Z,100.00
2022-08-10T23:24:58.234Z,100.00
2022-08-10T23:27:38.932Z,100.00
2022-08-10T23:30:17.243Z,100.00
2022-08-10T23:32:46.246Z,100.00
2022-08-10T23:36:32.442Z,100.00
2022-08-10T23:37:59.287Z,100.00
2022-08-10T23:40:30.465Z,100.00
2022-08-10T23:43:02.569Z,100.00
2022-08-10T23:45:53.248Z,100.00
2022-08-10T23:48:09.190Z,100.00
2022-08-10T23:50:42.093Z,100.00
2022-08-10T23:53:15.073Z,100.00
2022-08-10T23:55:49.378Z,100.00
2022-08-10T23:58:33.185Z,100.00
